Terminal Aerodrome Forecast
Issued by NWS Denver/Boulder, CO

Home | Current Version | Previous Version | Text Only | Print | Product List | Glossary On
Versions: 1 2 3 4 5 6 7 8 9 10 11 12 13 14 15 16 17 18 19 20 21 22 23 24 25 26 27 28 29 30 31 32 33 34 35 36 37 38 39 40 41 42 43 44 45 46 47 48 49 50
000
FTUS45 KBOU 050325 AAB
TAFDEN
TAF AMD
KDEN 050325Z 0503/0606 10011KT P6SM VCSH SCT012 BKN020 OVC040
      TEMPO 0503/0506 4SM -RADZ BR BKN009
     FM050600 12009KT 6SM -RA BR BKN015 OVC035
     FM051500 09006KT P6SM VCSH BKN015 OVC030
     FM051900 08007KT 5SM -SHRA BKN015 OVC030
      TEMPO 0520/0524 3SM -TSRA OVC012CB
     FM060000 08005KT 5SM -RA BR BKN012 OVC025=

USA.gov is the U.S. government's official web portal to all federal, state and local government web resources and services.